• Join FlightAware (Why Join?)
  • Login
  • US Flag 
06:33AM EST


 

Airport Tracker/Info


-or-


 

Live Flight TrackerFlight Track Log ✈ N795SK ✈ 12-May-2012 ✈ KLAX - KBOI

Flight Track Log - Related Links

Times and Time Zones

All times are in EDT time to prevent confusion due to time zone crossing. See the N795SK flight status page for this flight to view local times or setup timezone preferences in your user account.

Time Position Orientation Groundspeed Altitude Reporting Facility
EDT Latitude Longitude Course Direction KTS MPH feet Rate Location/Type
07:29PM 33.9990 -118.3968 North  Level Estimated
07:30PM 34.1050 -118.3757 North  Level Estimated
07:31PM 34.2109 -118.3545 North  Level Estimated
07:32PM 34.3169 -118.3333 North  Level Estimated
07:33PM 34.4228 -118.3120 North  Level Estimated
07:34PM 34.5288 -118.2906 North  Level Estimated
07:35PM 34.6347 -118.2692 North  Level Estimated
07:36PM 34.7407 -118.2478 North  Level Estimated
07:37PM 34.8466 -118.2263 North  Level Estimated
07:38PM 34.9525 -118.2047 North  Level Estimated
07:39PM 35.0585 -118.1831 North  Level Estimated
07:40PM 35.1644 -118.1614 10° North  Level Estimated
07:41PM 35.2703 -118.1397 10° North  Level Estimated
07:42PM 35.3762 -118.1179 10° North  Level Estimated
07:43PM 35.4822 -118.0960 10° North  Level Estimated
07:44PM 35.5881 -118.0741 10° North  Level Estimated
07:45PM 35.6940 -118.0522 10° North  Level Estimated
07:46PM 35.7999 -118.0301 10° North  Level Estimated
07:47PM 35.9058 -118.0081 10° North  Level Estimated
07:48PM 36.0117 -117.9859 10° North  Level Estimated
07:49PM 36.1175 -117.9637 10° North  Level Estimated
07:50PM 36.2234 -117.9415 10° North  Level Estimated
07:51PM 36.3293 -117.9191 10° North  Level Estimated
07:52PM 36.4352 -117.8968 10° North  Level Estimated
07:53PM 36.5411 -117.8743 10° North  Level Estimated
07:54PM 36.6469 -117.8518 10° North  Level Estimated
07:55PM 36.7528 -117.8293 10° North  Level Estimated
07:56PM 36.8587 -117.8066 10° North  Level Estimated
07:57PM 36.9645 -117.7839 10° North  Level Estimated
07:58PM 37.0704 -117.7612 10° North  Level Estimated
07:59PM 37.1762 -117.7384 10° North  Level Estimated
08:00PM 37.2821 -117.7155 10° North  Level Estimated
08:01PM 37.3879 -117.6926 10° North  Level Estimated
08:02PM 37.4937 -117.6695 10° North  Level Estimated
08:03PM 37.5996 -117.6465 10° North  Level Estimated
08:04PM 37.7054 -117.6233 10° North  Level Estimated
08:05PM 37.8112 -117.6001 10° North  Level Estimated
08:06PM 37.9170 -117.5768 10° North  Level Estimated
08:07PM 38.0228 -117.5535 10° North  Level Estimated
08:08PM 38.1287 -117.5301 10° North  Level Estimated
08:09PM 38.2345 -117.5066 10° North  Level Estimated
08:10PM 38.3402 -117.4831 10° North  Level Estimated
08:11PM 38.4460 -117.4594 10° North  Level Estimated
08:12PM 38.5518 -117.4358 10° North  Level Estimated
08:13PM 38.6576 -117.4120 10° North  Level Estimated
08:14PM 38.7634 -117.3882 10° North  Level Estimated
08:15PM 38.8692 -117.3643 10° North  Level Estimated
08:16PM 38.9749 -117.3403 10° North  Level Estimated
08:17PM 39.0807 -117.3163 10° North  Level Estimated
08:18PM 39.1865 -117.2922 10° North  Level Estimated
08:19PM 39.2922 -117.2680 10° North  Level Estimated
08:20PM 39.3980 -117.2438 10° North  Level Estimated
08:21PM 39.5037 -117.2194 10° North  Level Estimated
08:22PM 39.6094 -117.1950 10° North  Level Estimated
08:23PM 39.7152 -117.1705 10° North  Level Estimated
08:24PM 39.8209 -117.1460 10° North  Level Estimated
08:25PM 39.9266 -117.1214 10° North  Level Estimated
08:26PM 40.0323 -117.0967 10° North  Level Estimated
08:27PM 40.1381 -117.0719 10° North  Level Estimated
08:28PM 40.2438 -117.0470 10° North  Level Estimated
08:29PM 40.3495 -117.0221 10° North  Level Estimated
08:30PM 40.4552 -116.9971 10° North  Level Estimated
08:31PM 40.5608 -116.9720 10° North  Level Estimated
08:32PM 40.6665 -116.9468 10° North  Level Estimated
08:33PM 40.7722 -116.9215 10° North  Level Estimated
08:34PM 40.8779 -116.8962 10° North  Level Estimated
08:35PM 40.9836 -116.8708 10° North  Level Estimated
08:36PM 41.0892 -116.8453 10° North  Level Estimated
08:37PM 41.1949 -116.8197 10° North  Level Estimated
08:38PM 41.3005 -116.7941 10° North  Level Estimated
08:39PM 41.4062 -116.7683 10° North  Level Estimated
08:40PM 41.5118 -116.7425 10° North  Level Estimated
08:41PM 41.6175 -116.7166 10° North  Level Estimated
08:42PM 41.7231 -116.6906 10° North  Level Estimated
08:43PM 41.8287 -116.6645 10° North  Level Estimated
08:44PM 41.9343 -116.6383 10° North  Level Estimated
08:45PM 42.0399 -116.6121 10° North  Level Estimated
08:46PM 42.1455 -116.5857 10° North  Level Estimated
08:47PM 42.2511 -116.5593 11° North  Level Estimated
08:48PM 42.3567 -116.5328 11° North  Level Estimated
08:49PM 42.4623 -116.5062 11° North  Level Estimated
08:50PM 42.5679 -116.4795 11° North  Level Estimated
08:51PM 42.6735 -116.4527 11° North  Level Estimated
08:52PM 42.7790 -116.4258 11° North  Level Estimated
08:53PM 42.8846 -116.3988 11° North  Level Estimated
08:54PM 42.9902 -116.3718 11° North  Level Estimated
08:55PM 43.0957 -116.3446 11° North  Level Estimated
08:56PM 43.2013 -116.3174 11° North  Level Estimated
08:57PM 43.3068 -116.2900 11° North  Level Estimated
08:58PM 43.4123 -116.2626 11° North  Level Estimated
08:59PM 43.5178 -116.2350 11° North  Level Estimated
09:00PM 43.6234 -116.2074 191° South  Level Estimated
09:01PM 43.5179 -116.2350 11° North  Level Estimated
09:02PM 43.6234 -116.2074 191° South  Level Estimated
09:03PM 43.5179 -116.2350 11° North  Level Estimated
09:04PM 43.6234 -116.2074 191° South  Level Estimated
09:05PM 43.5179 -116.2350 191° South  Level Estimated